sensor_id;sensor_type;location;lat;lon;timestamp;temperature;humidity
8105;DHT22;4095;48.942;9.104;2022-12-29T00:01:51;12.00;96.20
8105;DHT22;4095;48.942;9.104;2022-12-29T00:04:17;12.00;96.20
8105;DHT22;4095;48.942;9.104;2022-12-29T00:06:43;12.00;96.10
8105;DHT22;4095;48.942;9.104;2022-12-29T00:09:11;12.00;96.20
8105;DHT22;4095;48.942;9.104;2022-12-29T00:11:37;12.10;96.30
8105;DHT22;4095;48.942;9.104;2022-12-29T00:14:03;12.10;96.40
8105;DHT22;4095;48.942;9.104;2022-12-29T00:16:47;12.10;96.30
8105;DHT22;4095;48.942;9.104;2022-12-29T00:19:13;12.10;96.30
8105;DHT22;4095;48.942;9.104;2022-12-29T00:21:58;12.10;96.30
8105;DHT22;4095;48.942;9.104;2022-12-29T00:24:43;12.10;96.20
8105;DHT22;4095;48.942;9.104;2022-12-29T00:27:28;12.00;96.30
8105;DHT22;4095;48.942;9.104;2022-12-29T00:30:20;12.10;96.40
8105;DHT22;4095;48.942;9.104;2022-12-29T00:33:15;12.10;96.30
8105;DHT22;4095;48.942;9.104;2022-12-29T00:38:53;12.10;96.40
8105;DHT22;4095;48.942;9.104;2022-12-29T00:41:39;12.10;96.50
8105;DHT22;4095;48.942;9.104;2022-12-29T00:44:23;12.10;96.50
8105;DHT22;4095;48.942;9.104;2022-12-29T00:46:48;12.10;96.70
8105;DHT22;4095;48.942;9.104;2022-12-29T00:49:14;12.10;96.70
8105;DHT22;4095;48.942;9.104;2022-12-29T00:52:09;12.20;96.90
8105;DHT22;4095;48.942;9.104;2022-12-29T00:54:37;12.10;96.80
8105;DHT22;4095;48.942;9.104;2022-12-29T00:57:04;12.20;96.80
8105;DHT22;4095;48.942;9.104;2022-12-29T00:59:30;12.20;96.80
8105;DHT22;4095;48.942;9.104;2022-12-29T01:01:56;12.20;96.80
8105;DHT22;4095;48.942;9.104;2022-12-29T01:04:24;12.20;96.70
8105;DHT22;4095;48.942;9.104;2022-12-29T01:06:50;12.10;96.80
8105;DHT22;4095;48.942;9.104;2022-12-29T01:09:16;12.10;96.70
8105;DHT22;4095;48.942;9.104;2022-12-29T01:12:01;12.10;96.80
8105;DHT22;4095;48.942;9.104;2022-12-29T01:14:27;12.10;96.90
8105;DHT22;4095;48.942;9.104;2022-12-29T01:16:53;12.10;96.80
8105;DHT22;4095;48.942;9.104;2022-12-29T01:19:20;12.10;96.80
8105;DHT22;4095;48.942;9.104;2022-12-29T01:21:47;12.20;96.80
8105;DHT22;4095;48.942;9.104;2022-12-29T01:24:13;12.20;96.70
8105;DHT22;4095;48.942;9.104;2022-12-29T01:26:39;12.20;96.60
8105;DHT22;4095;48.942;9.104;2022-12-29T01:29:04;12.20;96.60
8105;DHT22;4095;48.942;9.104;2022-12-29T01:31:30;12.20;96.60
8105;DHT22;4095;48.942;9.104;2022-12-29T01:33:55;12.40;96.50
8105;DHT22;4095;48.942;9.104;2022-12-29T01:36:21;12.40;96.50
8105;DHT22;4095;48.942;9.104;2022-12-29T01:38:46;12.40;96.60
8105;DHT22;4095;48.942;9.104;2022-12-29T01:41:13;12.50;96.40
8105;DHT22;4095;48.942;9.104;2022-12-29T01:46:11;12.60;96.70
8105;DHT22;4095;48.942;9.104;2022-12-29T01:48:39;12.60;96.50
8105;DHT22;4095;48.942;9.104;2022-12-29T01:51:04;12.60;96.40
8105;DHT22;4095;48.942;9.104;2022-12-29T01:53:31;12.70;96.40
8105;DHT22;4095;48.942;9.104;2022-12-29T01:56:02;12.70;96.30
8105;DHT22;4095;48.942;9.104;2022-12-29T01:58:31;12.70;96.30
8105;DHT22;4095;48.942;9.104;2022-12-29T02:00:57;12.80;96.00
8105;DHT22;4095;48.942;9.104;2022-12-29T02:03:25;12.80;95.90
8105;DHT22;4095;48.942;9.104;2022-12-29T02:06:02;12.80;95.90
8105;DHT22;4095;48.942;9.104;2022-12-29T02:08:30;12.80;95.90
8105;DHT22;4095;48.942;9.104;2022-12-29T02:10:56;12.80;95.90
8105;DHT22;4095;48.942;9.104;2022-12-29T02:13:24;12.80;95.90
8105;DHT22;4095;48.942;9.104;2022-12-29T02:16:19;12.90;96.00
8105;DHT22;4095;48.942;9.104;2022-12-29T02:21:58;12.90;96.00
8105;DHT22;4095;48.942;9.104;2022-12-29T02:27:39;12.90;96.10
8105;DHT22;4095;48.942;9.104;2022-12-29T02:38:19;13.10;95.60
8105;DHT22;4095;48.942;9.104;2022-12-29T02:40:56;13.10;95.70
8105;DHT22;4095;48.942;9.104;2022-12-29T02:45:58;13.20;95.40
8105;DHT22;4095;48.942;9.104;2022-12-29T02:48:45;13.20;95.40
8105;DHT22;4095;48.942;9.104;2022-12-29T02:51:27;13.30;95.10
8105;DHT22;4095;48.942;9.104;2022-12-29T02:53:56;13.30;95.00
8105;DHT22;4095;48.942;9.104;2022-12-29T02:56:40;13.40;94.90
8105;DHT22;4095;48.942;9.104;2022-12-29T02:59:06;13.40;94.70
8105;DHT22;4095;48.942;9.104;2022-12-29T03:07:23;13.50;94.30
8105;DHT22;4095;48.942;9.104;2022-12-29T03:10:02;13.60;94.50
8105;DHT22;4095;48.942;9.104;2022-12-29T03:12:43;13.70;94.50
8105;DHT22;4095;48.942;9.104;2022-12-29T03:15:39;13.70;94.40
8105;DHT22;4095;48.942;9.104;2022-12-29T03:18:54;13.70;94.30
8105;DHT22;4095;48.942;9.104;2022-12-29T03:22:06;13.80;94.30
8105;DHT22;4095;48.942;9.104;2022-12-29T03:24:55;13.80;94.30
8105;DHT22;4095;48.942;9.104;2022-12-29T03:27:39;13.90;94.20
8105;DHT22;4095;48.942;9.104;2022-12-29T03:30:07;13.90;94.20
8105;DHT22;4095;48.942;9.104;2022-12-29T03:32:38;13.90;94.20
8105;DHT22;4095;48.942;9.104;2022-12-29T03:35:08;14.00;94.10
8105;DHT22;4095;48.942;9.104;2022-12-29T03:37:41;13.90;94.00
8105;DHT22;4095;48.942;9.104;2022-12-29T03:40:07;14.00;94.10
8105;DHT22;4095;48.942;9.104;2022-12-29T03:42:35;14.00;94.10
8105;DHT22;4095;48.942;9.104;2022-12-29T03:45:01;14.00;93.90
8105;DHT22;4095;48.942;9.104;2022-12-29T03:47:26;14.10;93.90
8105;DHT22;4095;48.942;9.104;2022-12-29T03:49:52;14.10;93.70
8105;DHT22;4095;48.942;9.104;2022-12-29T03:52:18;14.20;93.60
8105;DHT22;4095;48.942;9.104;2022-12-29T03:54:44;14.20;93.70
8105;DHT22;4095;48.942;9.104;2022-12-29T03:57:10;14.20;93.80
8105;DHT22;4095;48.942;9.104;2022-12-29T03:59:36;14.10;93.70
8105;DHT22;4095;48.942;9.104;2022-12-29T04:02:01;14.10;93.70
8105;DHT22;4095;48.942;9.104;2022-12-29T04:04:27;14.10;93.80
8105;DHT22;4095;48.942;9.104;2022-12-29T04:06:52;14.10;93.70
8105;DHT22;4095;48.942;9.104;2022-12-29T04:09:18;14.10;93.80
8105;DHT22;4095;48.942;9.104;2022-12-29T04:11:43;14.10;93.80
8105;DHT22;4095;48.942;9.104;2022-12-29T04:14:09;14.00;93.70
8105;DHT22;4095;48.942;9.104;2022-12-29T04:16:34;14.00;93.80
8105;DHT22;4095;48.942;9.104;2022-12-29T04:19:01;14.00;94.00
8105;DHT22;4095;48.942;9.104;2022-12-29T04:21:27;14.00;93.80
8105;DHT22;4095;48.942;9.104;2022-12-29T04:23:52;14.00;93.80
8105;DHT22;4095;48.942;9.104;2022-12-29T04:26:18;14.00;93.80
8105;DHT22;4095;48.942;9.104;2022-12-29T04:28:43;14.00;93.70
8105;DHT22;4095;48.942;9.104;2022-12-29T04:31:09;14.00;93.90
8105;DHT22;4095;48.942;9.104;2022-12-29T04:33:34;14.00;93.90
8105;DHT22;4095;48.942;9.104;2022-12-29T04:36:00;14.00;93.80
8105;DHT22;4095;48.942;9.104;2022-12-29T04:38:25;14.00;93.80
8105;DHT22;4095;48.942;9.104;2022-12-29T04:40:51;14.00;93.80
8105;DHT22;4095;48.942;9.104;2022-12-29T04:43:17;14.00;93.90
8105;DHT22;4095;48.942;9.104;2022-12-29T04:45:46;14.00;94.10
8105;DHT22;4095;48.942;9.104;2022-12-29T04:48:12;13.90;94.00
8105;DHT22;4095;48.942;9.104;2022-12-29T04:50:39;14.00;94.10
8105;DHT22;4095;48.942;9.104;2022-12-29T04:53:05;14.00;94.00
8105;DHT22;4095;48.942;9.104;2022-12-29T04:55:30;14.00;94.10
8105;DHT22;4095;48.942;9.104;2022-12-29T04:57:56;14.00;94.10
8105;DHT22;4095;48.942;9.104;2022-12-29T05:00:22;14.00;94.10
8105;DHT22;4095;48.942;9.104;2022-12-29T05:02:47;14.00;94.20
8105;DHT22;4095;48.942;9.104;2022-12-29T05:05:13;14.00;94.10
8105;DHT22;4095;48.942;9.104;2022-12-29T05:07:38;14.10;94.20
8105;DHT22;4095;48.942;9.104;2022-12-29T05:10:05;14.10;94.20
8105;DHT22;4095;48.942;9.104;2022-12-29T05:12:31;14.00;94.30
8105;DHT22;4095;48.942;9.104;2022-12-29T05:14:57;13.90;94.40
8105;DHT22;4095;48.942;9.104;2022-12-29T05:17:23;13.90;94.40
8105;DHT22;4095;48.942;9.104;2022-12-29T05:19:48;13.90;94.50
8105;DHT22;4095;48.942;9.104;2022-12-29T05:22:14;13.90;94.50
8105;DHT22;4095;48.942;9.104;2022-12-29T05:24:39;13.80;94.60
8105;DHT22;4095;48.942;9.104;2022-12-29T05:27:05;13.90;94.60
8105;DHT22;4095;48.942;9.104;2022-12-29T05:29:30;13.90;94.70
8105;DHT22;4095;48.942;9.104;2022-12-29T05:31:56;13.80;94.70
8105;DHT22;4095;48.942;9.104;2022-12-29T05:34:22;13.80;95.10
8105;DHT22;4095;48.942;9.104;2022-12-29T05:36:47;13.90;95.10
8105;DHT22;4095;48.942;9.104;2022-12-29T05:39:12;13.90;95.00
8105;DHT22;4095;48.942;9.104;2022-12-29T05:41:38;13.80;95.10
8105;DHT22;4095;48.942;9.104;2022-12-29T05:44:04;13.80;95.20
8105;DHT22;4095;48.942;9.104;2022-12-29T05:46:29;13.80;95.20
8105;DHT22;4095;48.942;9.104;2022-12-29T05:48:55;13.80;95.20
8105;DHT22;4095;48.942;9.104;2022-12-29T05:51:20;13.90;95.20
8105;DHT22;4095;48.942;9.104;2022-12-29T05:53:46;13.90;95.10
8105;DHT22;4095;48.942;9.104;2022-12-29T05:56:11;13.90;95.10
8105;DHT22;4095;48.942;9.104;2022-12-29T05:58:37;14.00;95.30
8105;DHT22;4095;48.942;9.104;2022-12-29T06:01:02;13.90;95.10
8105;DHT22;4095;48.942;9.104;2022-12-29T06:03:28;14.00;95.20
8105;DHT22;4095;48.942;9.104;2022-12-29T06:05:53;14.00;95.20
8105;DHT22;4095;48.942;9.104;2022-12-29T06:08:19;14.00;95.30
8105;DHT22;4095;48.942;9.104;2022-12-29T06:10:44;14.00;95.30
8105;DHT22;4095;48.942;9.104;2022-12-29T06:13:10;14.00;95.30
8105;DHT22;4095;48.942;9.104;2022-12-29T06:15:36;14.00;95.40
8105;DHT22;4095;48.942;9.104;2022-12-29T06:18:01;14.00;95.40
8105;DHT22;4095;48.942;9.104;2022-12-29T06:20:27;14.00;95.50
8105;DHT22;4095;48.942;9.104;2022-12-29T06:22:53;14.00;95.40
8105;DHT22;4095;48.942;9.104;2022-12-29T06:25:18;14.00;95.40
8105;DHT22;4095;48.942;9.104;2022-12-29T06:27:44;14.00;95.50
8105;DHT22;4095;48.942;9.104;2022-12-29T06:30:10;14.00;95.50
8105;DHT22;4095;48.942;9.104;2022-12-29T06:32:36;14.00;95.50
8105;DHT22;4095;48.942;9.104;2022-12-29T06:35:03;14.00;95.50
8105;DHT22;4095;48.942;9.104;2022-12-29T06:37:29;14.00;95.50
8105;DHT22;4095;48.942;9.104;2022-12-29T06:39:54;14.00;95.60
8105;DHT22;4095;48.942;9.104;2022-12-29T06:42:20;14.00;95.70
8105;DHT22;4095;48.942;9.104;2022-12-29T06:44:45;13.90;95.70
8105;DHT22;4095;48.942;9.104;2022-12-29T06:47:11;13.90;95.90
8105;DHT22;4095;48.942;9.104;2022-12-29T06:49:37;13.90;96.00
8105;DHT22;4095;48.942;9.104;2022-12-29T06:52:03;13.80;96.00
8105;DHT22;4095;48.942;9.104;2022-12-29T06:54:30;13.80;96.00
8105;DHT22;4095;48.942;9.104;2022-12-29T06:56:55;13.80;96.00
8105;DHT22;4095;48.942;9.104;2022-12-29T06:59:21;13.80;95.90
8105;DHT22;4095;48.942;9.104;2022-12-29T07:01:47;13.80;95.90
8105;DHT22;4095;48.942;9.104;2022-12-29T07:04:12;13.80;96.00
8105;DHT22;4095;48.942;9.104;2022-12-29T07:06:38;13.70;96.00
8105;DHT22;4095;48.942;9.104;2022-12-29T07:09:06;13.70;95.90
8105;DHT22;4095;48.942;9.104;2022-12-29T07:11:31;13.70;95.90
8105;DHT22;4095;48.942;9.104;2022-12-29T07:13:57;13.80;95.90
8105;DHT22;4095;48.942;9.104;2022-12-29T07:16:22;13.70;95.90
8105;DHT22;4095;48.942;9.104;2022-12-29T07:18:48;13.70;95.90
8105;DHT22;4095;48.942;9.104;2022-12-29T07:21:13;13.60;95.80
8105;DHT22;4095;48.942;9.104;2022-12-29T07:23:39;13.60;95.90
8105;DHT22;4095;48.942;9.104;2022-12-29T07:26:07;13.60;96.00
8105;DHT22;4095;48.942;9.104;2022-12-29T07:28:34;13.60;95.90
8105;DHT22;4095;48.942;9.104;2022-12-29T07:31:00;13.60;96.00
8105;DHT22;4095;48.942;9.104;2022-12-29T07:33:29;13.60;96.00
8105;DHT22;4095;48.942;9.104;2022-12-29T07:35:54;13.60;95.90
8105;DHT22;4095;48.942;9.104;2022-12-29T07:38:20;13.50;96.10
8105;DHT22;4095;48.942;9.104;2022-12-29T07:40:45;13.50;96.00
8105;DHT22;4095;48.942;9.104;2022-12-29T07:43:11;13.50;96.00
8105;DHT22;4095;48.942;9.104;2022-12-29T07:45:37;13.50;96.00
8105;DHT22;4095;48.942;9.104;2022-12-29T07:48:03;13.40;96.10
8105;DHT22;4095;48.942;9.104;2022-12-29T07:50:28;13.40;96.10
8105;DHT22;4095;48.942;9.104;2022-12-29T07:52:54;13.40;96.40
8105;DHT22;4095;48.942;9.104;2022-12-29T07:55:19;13.40;96.10
8105;DHT22;4095;48.942;9.104;2022-12-29T07:57:45;13.40;96.10
8105;DHT22;4095;48.942;9.104;2022-12-29T08:00:11;13.40;96.10
8105;DHT22;4095;48.942;9.104;2022-12-29T08:02:37;13.40;96.10
8105;DHT22;4095;48.942;9.104;2022-12-29T08:05:03;13.40;96.00
8105;DHT22;4095;48.942;9.104;2022-12-29T08:07:29;13.40;96.00
8105;DHT22;4095;48.942;9.104;2022-12-29T08:09:56;13.50;96.20
8105;DHT22;4095;48.942;9.104;2022-12-29T08:12:21;13.50;96.20
8105;DHT22;4095;48.942;9.104;2022-12-29T08:14:47;13.50;96.20
8105;DHT22;4095;48.942;9.104;2022-12-29T08:17:12;13.40;96.20
8105;DHT22;4095;48.942;9.104;2022-12-29T08:19:38;13.40;96.30
8105;DHT22;4095;48.942;9.104;2022-12-29T08:22:03;13.30;96.40
8105;DHT22;4095;48.942;9.104;2022-12-29T08:24:29;13.30;96.30
8105;DHT22;4095;48.942;9.104;2022-12-29T08:26:54;13.30;96.30
8105;DHT22;4095;48.942;9.104;2022-12-29T08:29:20;13.30;96.30
8105;DHT22;4095;48.942;9.104;2022-12-29T08:31:47;13.30;96.30
8105;DHT22;4095;48.942;9.104;2022-12-29T08:34:12;13.20;96.30
8105;DHT22;4095;48.942;9.104;2022-12-29T08:36:38;13.20;96.30
8105;DHT22;4095;48.942;9.104;2022-12-29T08:39:04;13.30;96.30
8105;DHT22;4095;48.942;9.104;2022-12-29T08:41:29;13.30;96.20
8105;DHT22;4095;48.942;9.104;2022-12-29T08:43:55;13.40;96.20
8105;DHT22;4095;48.942;9.104;2022-12-29T08:46:21;13.40;96.20
8105;DHT22;4095;48.942;9.104;2022-12-29T08:48:46;13.40;96.20
8105;DHT22;4095;48.942;9.104;2022-12-29T08:51:12;13.40;96.20
8105;DHT22;4095;48.942;9.104;2022-12-29T08:53:38;13.40;96.20
8105;DHT22;4095;48.942;9.104;2022-12-29T08:56:03;13.40;96.30
8105;DHT22;4095;48.942;9.104;2022-12-29T08:58:29;13.40;96.30
8105;DHT22;4095;48.942;9.104;2022-12-29T09:00:56;13.50;96.40
8105;DHT22;4095;48.942;9.104;2022-12-29T09:03:25;13.50;96.30
8105;DHT22;4095;48.942;9.104;2022-12-29T09:05:52;13.50;96.30
8105;DHT22;4095;48.942;9.104;2022-12-29T09:08:18;13.50;96.40
8105;DHT22;4095;48.942;9.104;2022-12-29T09:10:44;13.50;96.30
8105;DHT22;4095;48.942;9.104;2022-12-29T09:13:11;13.50;96.30
8105;DHT22;4095;48.942;9.104;2022-12-29T09:15:37;13.50;96.50
8105;DHT22;4095;48.942;9.104;2022-12-29T09:18:03;13.50;96.50
8105;DHT22;4095;48.942;9.104;2022-12-29T09:20:28;13.60;96.60
8105;DHT22;4095;48.942;9.104;2022-12-29T09:22:54;13.60;96.50
8105;DHT22;4095;48.942;9.104;2022-12-29T09:25:20;13.60;96.50
8105;DHT22;4095;48.942;9.104;2022-12-29T09:27:47;13.70;96.40
8105;DHT22;4095;48.942;9.104;2022-12-29T09:30:15;13.70;96.30
8105;DHT22;4095;48.942;9.104;2022-12-29T09:32:40;13.80;96.30
8105;DHT22;4095;48.942;9.104;2022-12-29T09:35:06;13.80;96.30
8105;DHT22;4095;48.942;9.104;2022-12-29T09:37:32;13.80;96.30
8105;DHT22;4095;48.942;9.104;2022-12-29T09:39:58;13.90;96.40
8105;DHT22;4095;48.942;9.104;2022-12-29T09:42:35;14.00;96.50
8105;DHT22;4095;48.942;9.104;2022-12-29T09:47:34;14.10;95.80
8105;DHT22;4095;48.942;9.104;2022-12-29T09:50:05;14.30;95.40
8105;DHT22;4095;48.942;9.104;2022-12-29T09:52:40;14.50;95.30
8105;DHT22;4095;48.942;9.104;2022-12-29T09:55:17;14.70;94.90
8105;DHT22;4095;48.942;9.104;2022-12-29T09:58:00;14.80;94.80
8105;DHT22;4095;48.942;9.104;2022-12-29T10:00:54;14.90;94.70
8105;DHT22;4095;48.942;9.104;2022-12-29T10:03:24;14.90;94.70
8105;DHT22;4095;48.942;9.104;2022-12-29T10:09:15;15.00;94.70
8105;DHT22;4095;48.942;9.104;2022-12-29T10:17:05;15.10;95.00
8105;DHT22;4095;48.942;9.104;2022-12-29T10:19:57;15.10;95.20
8105;DHT22;4095;48.942;9.104;2022-12-29T10:22:53;15.00;95.30
8105;DHT22;4095;48.942;9.104;2022-12-29T10:25:23;15.00;95.10
8105;DHT22;4095;48.942;9.104;2022-12-29T10:27:50;15.10;95.30
8105;DHT22;4095;48.942;9.104;2022-12-29T10:30:17;15.10;95.40
8105;DHT22;4095;48.942;9.104;2022-12-29T10:32:51;15.10;95.40
8105;DHT22;4095;48.942;9.104;2022-12-29T10:35:21;15.10;95.40
8105;DHT22;4095;48.942;9.104;2022-12-29T10:40:33;15.10;95.20
8105;DHT22;4095;48.942;9.104;2022-12-29T10:43:02;15.20;95.20
8105;DHT22;4095;48.942;9.104;2022-12-29T10:45:31;15.20;95.50
8105;DHT22;4095;48.942;9.104;2022-12-29T10:50:25;15.10;95.40
8105;DHT22;4095;48.942;9.104;2022-12-29T10:52:52;15.10;95.30
8105;DHT22;4095;48.942;9.104;2022-12-29T10:55:22;15.10;95.10
8105;DHT22;4095;48.942;9.104;2022-12-29T10:57:50;15.20;95.30
8105;DHT22;4095;48.942;9.104;2022-12-29T11:00:20;15.20;95.20
8105;DHT22;4095;48.942;9.104;2022-12-29T11:03:17;15.60;95.50
8105;DHT22;4095;48.942;9.104;2022-12-29T11:05:54;16.80;94.30
8105;DHT22;4095;48.942;9.104;2022-12-29T11:08:28;16.90;93.70
8105;DHT22;4095;48.942;9.104;2022-12-29T11:11:07;16.60;94.00
8105;DHT22;4095;48.942;9.104;2022-12-29T11:13:48;16.30;94.50
8105;DHT22;4095;48.942;9.104;2022-12-29T11:16:14;16.10;94.60
8105;DHT22;4095;48.942;9.104;2022-12-29T11:18:40;15.90;94.90
8105;DHT22;4095;48.942;9.104;2022-12-29T11:24:05;15.70;94.70
8105;DHT22;4095;48.942;9.104;2022-12-29T11:26:44;15.60;94.60
8105;DHT22;4095;48.942;9.104;2022-12-29T11:32:02;15.60;94.60
8105;DHT22;4095;48.942;9.104;2022-12-29T11:34:33;15.60;94.50
8105;DHT22;4095;48.942;9.104;2022-12-29T11:37:11;15.60;94.70
8105;DHT22;4095;48.942;9.104;2022-12-29T11:39:55;15.50;94.50
8105;DHT22;4095;48.942;9.104;2022-12-29T11:42:38;15.50;94.50
8105;DHT22;4095;48.942;9.104;2022-12-29T11:45:23;15.50;94.70
8105;DHT22;4095;48.942;9.104;2022-12-29T11:47:56;15.50;94.90
8105;DHT22;4095;48.942;9.104;2022-12-29T11:50:29;15.50;94.50
8105;DHT22;4095;48.942;9.104;2022-12-29T11:53:20;15.50;93.90
8105;DHT22;4095;48.942;9.104;2022-12-29T11:55:58;15.50;94.00
8105;DHT22;4095;48.942;9.104;2022-12-29T11:58:32;15.50;93.40
8105;DHT22;4095;48.942;9.104;2022-12-29T12:01:18;15.50;93.30
8105;DHT22;4095;48.942;9.104;2022-12-29T12:04:05;15.50;93.70
8105;DHT22;4095;48.942;9.104;2022-12-29T12:06:35;15.40;93.70
8105;DHT22;4095;48.942;9.104;2022-12-29T12:09:06;15.40;93.70
8105;DHT22;4095;48.942;9.104;2022-12-29T12:11:36;15.30;93.70
8105;DHT22;4095;48.942;9.104;2022-12-29T12:16:52;15.30;93.60
8105;DHT22;4095;48.942;9.104;2022-12-29T12:19:43;15.50;93.80
8105;DHT22;4095;48.942;9.104;2022-12-29T12:22:13;15.60;93.50
8105;DHT22;4095;48.942;9.104;2022-12-29T12:25:24;15.70;93.40
8105;DHT22;4095;48.942;9.104;2022-12-29T12:27:56;15.70;93.60
8105;DHT22;4095;48.942;9.104;2022-12-29T12:30:25;15.60;93.90
8105;DHT22;4095;48.942;9.104;2022-12-29T12:38:23;15.50;94.20
8105;DHT22;4095;48.942;9.104;2022-12-29T12:44:30;15.40;94.40
8105;DHT22;4095;48.942;9.104;2022-12-29T12:52:28;15.30;94.70
8105;DHT22;4095;48.942;9.104;2022-12-29T13:00:49;15.30;95.00
8105;DHT22;4095;48.942;9.104;2022-12-29T13:06:18;15.30;94.90
8105;DHT22;4095;48.942;9.104;2022-12-29T13:09:09;15.30;94.80
8105;DHT22;4095;48.942;9.104;2022-12-29T13:17:19;15.30;94.80
8105;DHT22;4095;48.942;9.104;2022-12-29T13:23:02;15.30;94.80
8105;DHT22;4095;48.942;9.104;2022-12-29T13:25:37;15.40;94.80
8105;DHT22;4095;48.942;9.104;2022-12-29T13:33:58;15.50;95.40
8105;DHT22;4095;48.942;9.104;2022-12-29T13:36:33;15.40;95.60
8105;DHT22;4095;48.942;9.104;2022-12-29T13:41:42;15.30;96.40
8105;DHT22;4095;48.942;9.104;2022-12-29T13:44:15;15.20;96.10
8105;DHT22;4095;48.942;9.104;2022-12-29T13:46:43;15.20;96.30
8105;DHT22;4095;48.942;9.104;2022-12-29T13:51:40;15.10;96.60
8105;DHT22;4095;48.942;9.104;2022-12-29T13:59:57;14.90;95.20
8105;DHT22;4095;48.942;9.104;2022-12-29T14:02:45;14.90;94.80
8105;DHT22;4095;48.942;9.104;2022-12-29T14:07:44;14.90;94.80
8105;DHT22;4095;48.942;9.104;2022-12-29T14:10:35;15.00;95.10
8105;DHT22;4095;48.942;9.104;2022-12-29T14:13:22;15.00;95.40
8105;DHT22;4095;48.942;9.104;2022-12-29T14:15:56;15.00;95.10
8105;DHT22;4095;48.942;9.104;2022-12-29T14:18:31;15.00;95.10
8105;DHT22;4095;48.942;9.104;2022-12-29T14:21:00;15.00;95.40
8105;DHT22;4095;48.942;9.104;2022-12-29T14:23:42;15.00;95.60
8105;DHT22;4095;48.942;9.104;2022-12-29T14:28:57;14.90;95.90
8105;DHT22;4095;48.942;9.104;2022-12-29T14:31:40;14.90;96.10
8105;DHT22;4095;48.942;9.104;2022-12-29T14:36:43;14.90;96.40
8105;DHT22;4095;48.942;9.104;2022-12-29T14:44:29;14.90;96.40
8105;DHT22;4095;48.942;9.104;2022-12-29T14:46:56;15.00;96.60
8105;DHT22;4095;48.942;9.104;2022-12-29T14:49:29;15.00;96.80
8105;DHT22;4095;48.942;9.104;2022-12-29T14:52:20;15.00;96.90
8105;DHT22;4095;48.942;9.104;2022-12-29T14:54:47;15.00;97.00
8105;DHT22;4095;48.942;9.104;2022-12-29T14:59:46;15.00;97.30
8105;DHT22;4095;48.942;9.104;2022-12-29T15:02:17;15.00;97.30
8105;DHT22;4095;48.942;9.104;2022-12-29T15:04:44;15.00;97.50
8105;DHT22;4095;48.942;9.104;2022-12-29T15:07:11;14.90;97.80
8105;DHT22;4095;48.942;9.104;2022-12-29T15:09:59;14.90;98.00
8105;DHT22;4095;48.942;9.104;2022-12-29T15:12:47;14.80;98.20
8105;DHT22;4095;48.942;9.104;2022-12-29T15:15:23;14.80;98.40
8105;DHT22;4095;48.942;9.104;2022-12-29T15:17:49;14.70;98.80
8105;DHT22;4095;48.942;9.104;2022-12-29T15:20:30;14.60;99.00
8105;DHT22;4095;48.942;9.104;2022-12-29T15:23:00;14.60;99.20
8105;DHT22;4095;48.942;9.104;2022-12-29T15:25:27;14.50;99.20
8105;DHT22;4095;48.942;9.104;2022-12-29T15:28:03;14.20;99.80
8105;DHT22;4095;48.942;9.104;2022-12-29T15:30:29;14.00;99.90
8105;DHT22;4095;48.942;9.104;2022-12-29T15:32:55;13.70;99.90
8105;DHT22;4095;48.942;9.104;2022-12-29T15:35:33;13.30;99.90
8105;DHT22;4095;48.942;9.104;2022-12-29T15:38:00;13.10;99.90
8105;DHT22;4095;48.942;9.104;2022-12-29T15:40:32;12.90;99.90
8105;DHT22;4095;48.942;9.104;2022-12-29T15:44:14;12.90;99.90
8105;DHT22;4095;48.942;9.104;2022-12-29T15:46:11;12.80;99.90
8105;DHT22;4095;48.942;9.104;2022-12-29T15:48:38;12.70;99.90
8105;DHT22;4095;48.942;9.104;2022-12-29T15:51:30;12.70;99.90
8105;DHT22;4095;48.942;9.104;2022-12-29T15:53:58;12.70;99.90
8105;DHT22;4095;48.942;9.104;2022-12-29T15:56:24;12.60;99.90
8105;DHT22;4095;48.942;9.104;2022-12-29T15:58:53;12.60;99.90
8105;DHT22;4095;48.942;9.104;2022-12-29T16:01:30;12.60;99.90
8105;DHT22;4095;48.942;9.104;2022-12-29T16:03:58;12.70;99.90
8105;DHT22;4095;48.942;9.104;2022-12-29T16:06:39;12.70;99.90
8105;DHT22;4095;48.942;9.104;2022-12-29T16:09:34;12.70;99.90
8105;DHT22;4095;48.942;9.104;2022-12-29T16:12:15;12.70;99.90
8105;DHT22;4095;48.942;9.104;2022-12-29T16:14:46;12.70;99.90
8105;DHT22;4095;48.942;9.104;2022-12-29T16:17:14;12.60;99.90
8105;DHT22;4095;48.942;9.104;2022-12-29T16:19:42;12.60;99.90
8105;DHT22;4095;48.942;9.104;2022-12-29T16:22:22;12.60;99.90
8105;DHT22;4095;48.942;9.104;2022-12-29T16:24:49;12.60;99.90
8105;DHT22;4095;48.942;9.104;2022-12-29T16:27:37;12.60;99.90
8105;DHT22;4095;48.942;9.104;2022-12-29T16:30:16;12.70;99.90
8105;DHT22;4095;48.942;9.104;2022-12-29T16:32:47;12.70;99.90
8105;DHT22;4095;48.942;9.104;2022-12-29T16:37:43;12.60;99.90
8105;DHT22;4095;48.942;9.104;2022-12-29T16:47:47;12.60;99.90
8105;DHT22;4095;48.942;9.104;2022-12-29T16:50:19;12.60;99.90
8105;DHT22;4095;48.942;9.104;2022-12-29T16:52:49;12.60;99.90
8105;DHT22;4095;48.942;9.104;2022-12-29T16:55:18;12.60;99.90
8105;DHT22;4095;48.942;9.104;2022-12-29T16:57:46;12.60;99.90
8105;DHT22;4095;48.942;9.104;2022-12-29T17:00:21;12.60;99.90
8105;DHT22;4095;48.942;9.104;2022-12-29T17:02:54;12.60;99.90
8105;DHT22;4095;48.942;9.104;2022-12-29T17:05:20;12.60;99.90
8105;DHT22;4095;48.942;9.104;2022-12-29T17:07:46;12.60;99.90
8105;DHT22;4095;48.942;9.104;2022-12-29T17:10:12;12.60;99.90
8105;DHT22;4095;48.942;9.104;2022-12-29T17:12:42;12.60;99.90
8105;DHT22;4095;48.942;9.104;2022-12-29T17:15:26;12.60;99.90
8105;DHT22;4095;48.942;9.104;2022-12-29T17:17:56;12.50;99.90
8105;DHT22;4095;48.942;9.104;2022-12-29T17:20:24;12.60;99.90
8105;DHT22;4095;48.942;9.104;2022-12-29T17:22:50;12.60;99.90
8105;DHT22;4095;48.942;9.104;2022-12-29T17:25:26;12.60;99.90
8105;DHT22;4095;48.942;9.104;2022-12-29T17:27:59;12.50;99.90
8105;DHT22;4095;48.942;9.104;2022-12-29T17:30:27;12.50;99.90
8105;DHT22;4095;48.942;9.104;2022-12-29T17:33:11;12.50;99.90
8105;DHT22;4095;48.942;9.104;2022-12-29T17:35:37;12.50;99.90
8105;DHT22;4095;48.942;9.104;2022-12-29T17:40:38;12.40;99.90
8105;DHT22;4095;48.942;9.104;2022-12-29T17:43:03;12.30;99.90
8105;DHT22;4095;48.942;9.104;2022-12-29T17:45:31;12.20;99.90
8105;DHT22;4095;48.942;9.104;2022-12-29T17:47:57;12.20;99.90
8105;DHT22;4095;48.942;9.104;2022-12-29T17:50:27;12.10;99.90
8105;DHT22;4095;48.942;9.104;2022-12-29T17:53:14;12.00;99.90
8105;DHT22;4095;48.942;9.104;2022-12-29T17:55:41;12.00;99.90
8105;DHT22;4095;48.942;9.104;2022-12-29T17:58:27;12.10;99.90
8105;DHT22;4095;48.942;9.104;2022-12-29T18:00:58;12.10;99.90
8105;DHT22;4095;48.942;9.104;2022-12-29T18:03:38;12.00;99.90
8105;DHT22;4095;48.942;9.104;2022-12-29T18:06:06;12.00;99.90
8105;DHT22;4095;48.942;9.104;2022-12-29T18:08:34;12.10;99.90
8105;DHT22;4095;48.942;9.104;2022-12-29T18:11:00;12.00;99.90
8105;DHT22;4095;48.942;9.104;2022-12-29T18:13:29;11.90;99.90
8105;DHT22;4095;48.942;9.104;2022-12-29T18:15:55;11.80;99.90
8105;DHT22;4095;48.942;9.104;2022-12-29T18:18:26;11.80;99.90
8105;DHT22;4095;48.942;9.104;2022-12-29T18:20:54;11.70;99.90
8105;DHT22;4095;48.942;9.104;2022-12-29T18:23:23;11.70;99.90
8105;DHT22;4095;48.942;9.104;2022-12-29T18:26:03;11.70;99.90
8105;DHT22;4095;48.942;9.104;2022-12-29T18:28:29;11.70;99.90
8105;DHT22;4095;48.942;9.104;2022-12-29T18:30:56;11.60;99.90
8105;DHT22;4095;48.942;9.104;2022-12-29T18:33:22;11.60;99.90
8105;DHT22;4095;48.942;9.104;2022-12-29T18:36:04;11.60;99.90